Time;durP1;ratioP1;P1;durP2;ratioP2;P2;SDS_P1;SDS_P2;PMS_P1;PMS_P2;Temp;Humidity;BMP_temperature;BMP_pressure;BME280_temperature;BME280_humidity;BME280_pressure;Samples;Min_cycle;Max_cycle;Signal;HPM_P1;HPM_P2
2022/08/14 00:00:21;;;;;;;8.50;5.35;;;;;;;22.03;100.00;101162.75;5038799;28;20370;-70
2022/08/14 00:02:47;;;;;;;11.93;6.22;;;;;;;21.96;100.00;101153.13;5040489;28;20029;-70
2022/08/14 00:05:16;;;;;;;9.18;5.22;;;;;;;21.93;100.00;101152.31;5047244;28;20507;-70
2022/08/14 00:07:42;;;;;;;7.32;5.65;;;;;;;21.93;100.00;101146.97;5036684;28;20028;-70
2022/08/14 00:10:10;;;;;;;7.00;5.70;;;;;;;21.90;100.00;101146.09;5046481;28;20033;-70
2022/08/14 00:12:39;;;;;;;7.13;5.60;;;;;;;21.85;100.00;101145.38;5035718;28;20032;-70
2022/08/14 00:15:33;;;;;;;11.40;6.13;;;;;;;21.83;100.00;101146.31;5054896;28;20029;-70
2022/08/14 00:17:59;;;;;;;6.55;5.78;;;;;;;21.73;100.00;101146.56;5042962;28;20061;-70
2022/08/14 00:20:29;;;;;;;7.65;6.00;;;;;;;21.76;100.00;101128.63;5041647;28;20111;-71
2022/08/14 00:22:55;;;;;;;9.10;5.70;;;;;;;21.71;100.00;101134.13;5042789;28;20035;-71
2022/08/14 00:25:20;;;;;;;7.03;6.25;;;;;;;21.69;100.00;101138.63;5050940;28;20028;-70
2022/08/14 00:27:46;;;;;;;8.27;5.53;;;;;;;21.64;100.00;101135.19;5041078;28;20480;-71
2022/08/14 00:30:13;;;;;;;12.98;6.47;;;;;;;21.60;100.00;101125.47;5045099;28;20064;-71
2022/08/14 00:32:39;;;;;;;6.43;5.72;;;;;;;21.58;100.00;101124.63;5049897;28;20346;-70
2022/08/14 00:35:06;;;;;;;10.50;6.55;;;;;;;21.48;100.00;101119.47;5055797;28;20029;-70
2022/08/14 00:37:32;;;;;;;8.25;6.80;;;;;;;21.47;100.00;101122.19;5049046;28;20041;-71
2022/08/14 00:39:58;;;;;;;17.92;7.35;;;;;;;21.48;100.00;101123.94;5043235;28;20025;-71
2022/08/14 00:42:24;;;;;;;12.88;7.90;;;;;;;21.47;100.00;101117.69;5056329;28;20083;-70
2022/08/14 00:44:50;;;;;;;11.35;8.55;;;;;;;21.47;100.00;101131.06;5044309;28;20139;-71
2022/08/14 00:47:17;;;;;;;10.77;8.93;;;;;;;21.52;100.00;101117.59;5056768;28;20412;-70
2022/08/14 00:49:44;;;;;;;11.73;8.75;;;;;;;21.61;100.00;101122.75;5065543;28;20437;-71
2022/08/14 00:52:11;;;;;;;13.50;8.80;;;;;;;21.62;100.00;101120.94;5045383;28;20036;-70
2022/08/14 00:54:37;;;;;;;15.60;8.68;;;;;;;21.53;100.00;101106.00;5051916;28;20444;-71
2022/08/14 00:57:03;;;;;;;10.20;9.10;;;;;;;21.47;100.00;101106.13;5042757;28;20041;-70
2022/08/14 00:59:29;;;;;;;11.60;8.98;;;;;;;21.43;100.00;101110.66;5039829;28;20333;-70
2022/08/14 01:01:57;;;;;;;11.50;8.80;;;;;;;21.37;100.00;101100.97;5036851;28;20025;-70
2022/08/14 01:04:23;;;;;;;9.00;8.10;;;;;;;21.33;100.00;101103.78;5038650;28;20396;-71
2022/08/14 01:06:50;;;;;;;9.55;8.50;;;;;;;21.34;100.00;101100.19;5036181;28;20025;-70
2022/08/14 01:09:21;;;;;;;15.50;8.88;;;;;;;21.30;100.00;101094.03;5040908;28;20045;-71
2022/08/14 01:11:51;;;;;;;8.77;7.88;;;;;;;21.27;100.00;101087.84;5040931;28;20075;-72
2022/08/14 01:14:18;;;;;;;9.55;8.32;;;;;;;21.22;100.00;101079.94;5051876;28;20087;-70
2022/08/14 01:16:47;;;;;;;10.25;8.60;;;;;;;21.20;100.00;101077.31;5046576;28;20028;-70
2022/08/14 01:21:58;;;;;;;11.27;8.10;;;;;;;21.23;100.00;101079.03;5050038;28;20047;-70
2022/08/14 01:24:24;;;;;;;10.90;7.22;;;;;;;21.25;100.00;101079.00;5040722;28;20037;-71
2022/08/14 01:26:52;;;;;;;9.88;7.25;;;;;;;21.28;100.00;101070.88;5047360;28;20074;-70
2022/08/14 01:29:18;;;;;;;13.27;6.82;;;;;;;21.32;100.00;101069.88;5043583;28;20033;-70
2022/08/14 01:31:51;;;;;;;9.68;7.03;;;;;;;21.31;100.00;101068.13;5047232;28;20056;-70
2022/08/14 01:34:19;;;;;;;8.60;7.07;;;;;;;21.34;100.00;101063.59;5038162;28;20053;-70
2022/08/14 01:36:45;;;;;;;7.20;6.50;;;;;;;21.30;100.00;101077.09;5042657;28;20056;-71
2022/08/14 01:39:16;;;;;;;8.70;6.70;;;;;;;21.28;100.00;101062.84;5043680;28;20025;-71
2022/08/14 01:41:43;;;;;;;13.40;6.60;;;;;;;21.27;100.00;101061.09;5050059;28;20127;-71
2022/08/14 01:44:12;;;;;;;8.23;7.38;;;;;;;21.19;100.00;101061.31;5048609;28;20059;-72
2022/08/14 01:46:43;;;;;;;8.23;6.78;;;;;;;21.21;100.00;101056.78;5039704;28;20041;-69
2022/08/14 01:49:14;;;;;;;7.93;6.35;;;;;;;21.17;100.00;101053.28;5052946;28;20052;-71
2022/08/14 01:51:42;;;;;;;9.82;6.28;;;;;;;21.23;100.00;101055.81;5043773;28;20108;-69
2022/08/14 01:54:11;;;;;;;8.00;6.75;;;;;;;21.25;100.00;101057.59;5045760;28;20032;-70
2022/08/14 01:56:38;;;;;;;7.18;6.32;;;;;;;21.26;100.00;101064.72;5046814;28;20053;-70
2022/08/14 01:59:09;;;;;;;8.40;7.50;;;;;;;21.20;100.00;101058.59;5035776;28;20112;-71
2022/08/14 02:01:36;;;;;;;8.52;7.03;;;;;;;21.21;100.00;101059.44;5046431;28;20034;-71
2022/08/14 02:04:03;;;;;;;7.18;6.40;;;;;;;21.21;100.00;101054.09;5052809;28;20047;-71
2022/08/14 02:06:29;;;;;;;11.70;5.97;;;;;;;21.05;100.00;101048.22;5050608;28;20050;-71
2022/08/14 02:08:55;;;;;;;6.72;5.90;;;;;;;21.02;100.00;101050.97;5052660;28;20029;-71
2022/08/14 02:11:21;;;;;;;5.97;5.38;;;;;;;20.95;100.00;101046.69;5047321;28;20052;-71
2022/08/14 02:14:05;;;;;;;10.48;6.38;;;;;;;20.92;100.00;101044.97;5052654;28;20049;-69
2022/08/14 02:16:37;;;;;;;8.65;6.00;;;;;;;20.85;100.00;101038.88;5045670;28;20033;-71
2022/08/14 02:19:07;;;;;;;10.50;6.40;;;;;;;20.77;100.00;101035.50;5056855;28;20024;-70
2022/08/14 02:21:33;;;;;;;8.32;6.68;;;;;;;20.65;100.00;101033.94;5054943;28;20047;-71
2022/08/14 02:24:01;;;;;;;7.13;5.88;;;;;;;20.54;100.00;101031.50;5050780;28;20152;-71
2022/08/14 02:26:30;;;;;;;11.25;6.07;;;;;;;20.48;100.00;101034.34;5057881;28;20087;-71
2022/08/14 02:29:23;;;;;;;9.63;6.32;;;;;;;20.40;100.00;101030.91;5053662;28;20095;-71
2022/08/14 02:31:53;;;;;;;10.00;6.00;;;;;;;20.36;100.00;101026.56;5063786;28;20027;-70
2022/08/14 02:34:23;;;;;;;9.57;6.25;;;;;;;20.32;100.00;101024.84;5042833;28;20029;-70
2022/08/14 02:36:52;;;;;;;7.72;6.55;;;;;;;20.31;100.00;101021.31;5041612;28;20028;-70
2022/08/14 02:39:18;;;;;;;8.75;7.13;;;;;;;20.32;100.00;101016.84;5040904;28;20032;-71
2022/08/14 02:41:47;;;;;;;10.77;6.90;;;;;;;20.29;100.00;101016.91;5036616;28;20369;-71
2022/08/14 02:44:12;;;;;;;10.07;6.95;;;;;;;20.28;100.00;101020.50;5045881;28;20033;-70
2022/08/14 02:46:38;;;;;;;8.27;7.05;;;;;;;20.27;100.00;101013.41;5041798;28;20498;-70
2022/08/14 02:49:05;;;;;;;7.97;6.95;;;;;;;20.25;100.00;101017.91;5038074;28;20036;-70
2022/08/14 02:51:30;;;;;;;9.98;8.18;;;;;;;20.24;100.00;101021.47;5038969;28;20044;-71
2022/08/14 02:53:57;;;;;;;9.70;7.25;;;;;;;20.24;100.00;101021.47;5039095;28;20026;-71
2022/08/14 02:56:22;;;;;;;9.73;7.40;;;;;;;20.23;100.00;101011.72;5041702;28;20040;-71
2022/08/14 02:58:50;;;;;;;9.23;7.47;;;;;;;20.25;100.00;101009.88;5042523;28;20465;-71
2022/08/14 03:01:19;;;;;;;14.30;7.97;;;;;;;20.18;100.00;101010.03;5041676;28;20076;-71
2022/08/14 03:03:47;;;;;;;10.02;7.75;;;;;;;20.15;100.00;101001.19;5044282;28;20032;-71
2022/08/14 03:06:13;;;;;;;10.30;8.60;;;;;;;20.16;100.00;101002.94;5049517;28;20128;-71
2022/08/14 03:08:40;;;;;;;11.85;7.50;;;;;;;20.13;100.00;100995.88;5046227;28;20028;-70
2022/08/14 03:11:09;;;;;;;10.52;8.45;;;;;;;20.16;100.00;100995.81;5050074;28;20029;-71
2022/08/14 03:13:38;;;;;;;10.50;8.02;;;;;;;20.13;100.00;100987.88;5050779;28;20020;-71
2022/08/14 03:16:05;;;;;;;11.43;8.32;;;;;;;20.15;100.00;100999.38;5044932;28;20052;-71
2022/08/14 03:18:30;;;;;;;12.05;8.07;;;;;;;20.12;100.00;100999.44;5041208;28;20033;-71
2022/08/14 03:20:57;;;;;;;11.38;8.35;;;;;;;20.10;100.00;100987.91;5036311;28;20032;-71
2022/08/14 03:23:23;;;;;;;9.82;7.88;;;;;;;20.03;100.00;100988.94;5051205;28;20020;-71
2022/08/14 03:25:49;;;;;;;13.82;9.10;;;;;;;19.98;100.00;100997.06;5045089;28;20018;-71
2022/08/14 03:28:14;;;;;;;11.60;8.65;;;;;;;19.92;100.00;100993.63;5041318;28;20542;-71
2022/08/14 03:30:40;;;;;;;13.90;8.48;;;;;;;19.83;100.00;100990.25;5052218;28;20465;-71
2022/08/14 03:33:08;;;;;;;10.35;8.85;;;;;;;19.77;100.00;100984.97;5046436;28;20048;-69
2022/08/14 03:35:34;;;;;;;9.43;7.72;;;;;;;19.78;100.00;100988.50;5042002;28;20124;-70
2022/08/14 03:38:11;;;;;;;12.13;8.20;;;;;;;19.75;100.00;100986.81;5039267;28;20418;-70
2022/08/14 03:40:38;;;;;;;11.70;7.97;;;;;;;19.68;100.00;100982.47;5042122;28;20037;-71
2022/08/14 03:43:08;;;;;;;11.63;8.48;;;;;;;19.70;100.00;100984.22;5040348;28;20024;-70
2022/08/14 03:45:35;;;;;;;11.43;8.68;;;;;;;19.64;100.00;100980.78;5058576;28;20456;-71
2022/08/14 03:48:14;;;;;;;10.13;9.13;;;;;;;19.60;100.00;100984.41;5053623;28;20025;-70
2022/08/14 03:50:43;;;;;;;10.23;8.55;;;;;;;19.59;100.00;100987.97;5042398;28;20025;-71
2022/08/14 03:53:09;;;;;;;13.82;8.25;;;;;;;19.57;100.00;100977.34;5045381;28;20561;-70
2022/08/14 03:55:35;;;;;;;12.07;8.48;;;;;;;19.55;100.00;100985.38;5050466;28;20089;-70
2022/08/14 03:58:00;;;;;;;10.82;9.07;;;;;;;19.51;100.00;100985.47;5038636;28;20100;-71
2022/08/14 04:00:28;;;;;;;10.35;8.32;;;;;;;19.46;100.00;100982.00;5036632;28;20131;-71
2022/08/14 04:02:53;;;;;;;10.43;8.65;;;;;;;19.42;100.00;100975.84;5046957;28;20031;-71
2022/08/14 04:05:19;;;;;;;9.50;8.27;;;;;;;19.38;100.00;100984.81;5049965;28;20060;-71
2022/08/14 04:07:45;;;;;;;12.60;7.80;;;;;;;19.35;100.00;100980.41;5055054;28;20020;-71
2022/08/14 04:10:11;;;;;;;11.70;8.40;;;;;;;19.28;100.00;100989.44;5048196;28;20499;-71
2022/08/14 04:12:37;;;;;;;10.25;9.13;;;;;;;19.23;100.00;100979.75;5050444;28;20419;-70
2022/08/14 04:15:04;;;;;;;9.52;8.52;;;;;;;19.15;100.00;100982.53;5046675;28;20025;-70
2022/08/14 04:17:31;;;;;;;10.10;8.90;;;;;;;19.11;100.00;100973.69;5041560;28;20487;-71
2022/08/14 04:19:58;;;;;;;10.43;9.10;;;;;;;19.09;100.00;100975.53;5040302;28;20025;-71
2022/08/14 04:22:24;;;;;;;11.25;9.88;;;;;;;19.10;100.00;100977.28;5044605;28;20021;-71
2022/08/14 04:24:49;;;;;;;11.48;8.68;;;;;;;19.06;100.00;100970.25;5054349;28;20123;-71
2022/08/14 04:27:14;;;;;;;13.55;9.20;;;;;;;19.04;100.00;100969.38;5043588;28;20029;-71
2022/08/14 04:29:41;;;;;;;11.07;8.98;;;;;;;19.08;100.00;100962.22;5038315;28;20071;-70
2022/08/14 04:32:08;;;;;;;10.30;9.02;;;;;;;19.08;100.00;100968.41;5044708;28;20025;-71
2022/08/14 04:34:38;;;;;;;13.68;9.30;;;;;;;19.08;100.00;100960.41;5049603;28;20024;-71
2022/08/14 04:45:16;;;;;;;10.95;9.50;;;;;;;19.18;100.00;100961.13;5043754;28;20087;-71
2022/08/14 04:50:27;;;;;;;11.07;9.07;;;;;;;19.18;100.00;100954.03;5041767;28;20056;-69
2022/08/14 04:52:53;;;;;;;10.35;8.43;;;;;;;19.22;100.00;100946.84;5050720;28;20035;-70
2022/08/14 04:55:19;;;;;;;11.60;8.82;;;;;;;19.26;100.00;100945.91;5047521;28;20028;-72
2022/08/14 04:57:46;;;;;;;11.75;9.38;;;;;;;19.33;100.00;100946.63;5038860;28;20092;-71
2022/08/14 05:00:12;;;;;;;9.85;8.50;;;;;;;19.36;100.00;100943.94;5038233;28;20032;-71
2022/08/14 05:02:37;;;;;;;10.75;8.90;;;;;;;19.38;100.00;100948.34;5035493;28;20029;-71
2022/08/14 05:05:03;;;;;;;9.77;8.60;;;;;;;19.42;100.00;100943.81;5044773;28;20045;-72
2022/08/14 05:07:28;;;;;;;10.30;8.77;;;;;;;19.43;100.00;100945.56;5045169;28;20025;-71
2022/08/14 05:09:53;;;;;;;11.20;8.57;;;;;;;19.46;100.00;100940.19;5036434;28;20108;-71
2022/08/14 05:12:18;;;;;;;11.93;9.38;;;;;;;19.53;100.00;100941.84;5037407;28;20088;-73
2022/08/14 05:14:45;;;;;;;11.15;8.38;;;;;;;19.56;100.00;100946.25;5038054;28;20113;-72
2022/08/14 05:17:11;;;;;;;13.30;9.32;;;;;;;19.55;100.00;100942.66;5044384;28;20024;-72
2022/08/14 05:19:36;;;;;;;10.77;9.15;;;;;;;19.60;100.00;100941.69;5046423;28;20029;-72
2022/08/14 05:22:01;;;;;;;9.77;8.77;;;;;;;19.65;100.00;100945.16;5046300;28;20029;-70
2022/08/14 05:24:27;;;;;;;10.15;8.75;;;;;;;19.61;100.00;100941.66;5052250;28;20048;-70
2022/08/14 05:26:53;;;;;;;12.02;8.95;;;;;;;19.59;100.00;100939.94;5050316;28;20094;-70
2022/08/14 05:29:19;;;;;;;12.27;9.82;;;;;;;19.59;100.00;100946.16;5049275;28;20036;-72
2022/08/14 05:31:44;;;;;;;13.07;9.65;;;;;;;19.58;100.00;100941.75;5052554;28;20037;-71
2022/08/14 05:34:10;;;;;;;14.50;9.07;;;;;;;19.60;100.00;100941.69;5042935;28;20052;-71
2022/08/14 05:36:35;;;;;;;11.85;9.55;;;;;;;19.59;100.00;100931.94;5038267;28;20053;-71
2022/08/14 05:39:01;;;;;;;12.25;9.35;;;;;;;19.57;100.00;100931.09;5052465;28;20029;-70
2022/08/14 05:41:26;;;;;;;11.80;9.23;;;;;;;19.62;100.00;100924.75;5051377;28;20028;-70
2022/08/14 05:43:52;;;;;;;11.80;8.88;;;;;;;19.68;100.00;100924.66;5057123;28;20033;-71
2022/08/14 05:46:23;;;;;;;19.67;9.27;;;;;;;19.78;100.00;100929.78;5038208;28;20033;-72
2022/08/14 05:48:49;;;;;;;10.88;9.45;;;;;;;19.84;100.00;100930.56;5057517;28;20100;-72
2022/08/14 05:51:16;;;;;;;9.95;8.82;;;;;;;19.92;100.00;100924.19;5055639;28;20043;-72
2022/08/14 05:53:42;;;;;;;12.82;10.10;;;;;;;19.96;100.00;100921.41;5055267;28;20491;-72
2022/08/14 05:56:07;;;;;;;10.35;9.23;;;;;;;20.01;100.00;100926.69;5045607;28;20370;-71
2022/08/14 05:58:32;;;;;;;10.63;9.52;;;;;;;20.07;100.00;100926.53;5037325;28;20022;-71
2022/08/14 06:00:58;;;;;;;11.50;9.45;;;;;;;20.16;100.00;100923.66;5044835;28;20029;-70
2022/08/14 06:03:23;;;;;;;12.73;9.30;;;;;;;20.24;100.00;100933.28;5052571;28;20109;-70
2022/08/14 06:05:53;;;;;;;12.52;9.40;;;;;;;20.26;100.00;100926.13;5048903;28;20044;-71
2022/08/14 06:08:27;;;;;;;11.05;9.95;;;;;;;20.28;100.00;100932.31;5048979;28;20030;-71
2022/08/14 06:10:54;;;;;;;16.92;9.82;;;;;;;20.36;100.00;100927.66;5056763;28;20028;-71
2022/08/14 06:13:21;;;;;;;11.55;9.73;;;;;;;20.41;100.00;100928.44;5054696;28;20367;-72
2022/08/14 06:15:48;;;;;;;12.73;10.25;;;;;;;20.48;100.00;100929.19;5052868;28;20017;-72
2022/08/14 06:18:14;;;;;;;13.77;10.02;;;;;;;20.44;100.00;100931.03;5043373;28;20033;-71
2022/08/14 06:20:40;;;;;;;14.48;9.68;;;;;;;20.51;100.00;100927.34;5042571;28;20033;-72
2022/08/14 06:23:06;;;;;;;12.32;9.50;;;;;;;20.62;100.00;100928.84;5051138;28;20771;-72
2022/08/14 06:25:31;;;;;;;12.77;9.88;;;;;;;20.70;100.00;100919.78;5055451;28;20590;-71
2022/08/14 06:27:57;;;;;;;12.80;8.88;;;;;;;20.79;100.00;100915.13;5053585;28;20043;-72
2022/08/14 06:30:26;;;;;;;10.98;9.73;;;;;;;20.89;100.00;100919.34;5056729;28;20122;-70
2022/08/14 06:32:52;;;;;;;15.60;10.18;;;;;;;20.86;100.00;100917.63;5054974;28;20508;-73
2022/08/14 06:35:22;;;;;;;13.35;9.77;;;;;;;20.96;100.00;100920.03;5039049;28;20029;-72
2022/08/14 06:37:51;;;;;;;12.20;9.80;;;;;;;21.01;100.00;100924.38;5046246;28;20048;-71
2022/08/14 06:40:22;;;;;;;13.52;10.20;;;;;;;21.08;100.00;100921.53;5048296;28;20094;-72
2022/08/14 06:42:48;;;;;;;12.80;8.70;;;;;;;21.16;100.00;100930.22;5049922;28;20092;-72
2022/08/14 06:45:15;;;;;;;9.88;8.88;;;;;;;21.22;100.00;100924.72;5039569;28;20159;-74
2022/08/14 06:47:43;;;;;;;9.98;8.98;;;;;;;21.30;100.00;100913.81;5040225;28;20530;-73
2022/08/14 06:50:12;;;;;;;11.40;8.93;;;;;;;21.39;100.00;100921.56;5054272;28;20391;-72
2022/08/14 06:52:38;;;;;;;11.20;8.75;;;;;;;21.44;100.00;100913.44;5038778;28;20033;-72
2022/08/14 06:55:06;;;;;;;14.57;9.45;;;;;;;21.52;100.00;100911.44;5043630;28;20029;-72
2022/08/14 06:57:39;;;;;;;10.32;9.02;;;;;;;21.63;100.00;100913.84;5052764;28;20056;-72
2022/08/14 07:00:10;;;;;;;14.48;8.38;;;;;;;21.67;100.00;100902.97;5038909;28;20142;-73
2022/08/14 07:08:04;;;;;;;10.27;8.13;;;;;;;21.97;100.00;100896.78;5033816;28;20382;-73
2022/08/14 07:10:30;;;;;;;11.80;7.00;;;;;;;22.06;100.00;100894.69;5042501;28;20033;-73
2022/08/14 07:12:56;;;;;;;11.48;7.00;;;;;;;22.15;100.00;100896.22;5051357;28;20378;-73
2022/08/14 07:15:21;;;;;;;9.40;7.72;;;;;;;22.24;100.00;100890.56;5042811;28;20024;-73
2022/08/14 07:17:48;;;;;;;9.05;7.82;;;;;;;22.33;100.00;100894.75;5067525;28;20028;-73
2022/08/14 07:20:19;;;;;;;8.30;6.78;;;;;;;22.41;100.00;100897.25;5048990;28;20025;-74
2022/08/14 07:22:47;;;;;;;8.02;6.80;;;;;;;22.51;100.00;100903.19;5063305;28;20111;-74
2022/08/14 07:25:13;;;;;;;9.73;6.75;;;;;;;22.58;100.00;100899.34;5057302;28;20037;-73
2022/08/14 07:27:39;;;;;;;6.90;6.20;;;;;;;22.64;100.00;100898.28;5052183;28;20043;-74
2022/08/14 07:30:05;;;;;;;9.68;6.47;;;;;;;22.74;100.00;100899.75;5054006;28;20084;-74
2022/08/14 07:32:31;;;;;;;8.02;6.63;;;;;;;22.84;100.00;100898.50;5047819;28;20100;-74
2022/08/14 07:34:57;;;;;;;11.73;6.25;;;;;;;22.94;100.00;100907.13;5048691;28;20491;-74
2022/08/14 07:37:22;;;;;;;10.85;7.43;;;;;;;23.03;100.00;100897.88;5070461;28;20012;-72
2022/08/14 07:39:48;;;;;;;8.55;6.28;;;;;;;23.11;99.33;100901.16;5048168;28;20020;-73
2022/08/14 07:42:14;;;;;;;12.32;5.85;;;;;;;23.19;98.60;100899.09;5044075;28;20044;-73
2022/08/14 07:44:39;;;;;;;11.70;5.90;;;;;;;23.32;97.05;100898.66;5040903;28;20469;-74
2022/08/14 07:47:04;;;;;;;10.40;6.60;;;;;;;23.43;94.73;100904.56;5055328;28;20028;-74
2022/08/14 07:49:32;;;;;;;7.82;6.53;;;;;;;23.55;94.25;100900.53;5065213;28;20041;-74
2022/08/14 07:51:58;;;;;;;7.28;5.32;;;;;;;23.65;93.78;100890.34;5047117;28;20037;-75
2022/08/14 07:54:24;;;;;;;7.20;5.72;;;;;;;23.75;93.03;100897.09;5060463;28;20029;-74
2022/08/14 07:56:50;;;;;;;9.25;5.90;;;;;;;23.84;90.91;100891.38;5049907;28;20020;-73
2022/08/14 07:59:16;;;;;;;6.93;6.03;;;;;;;23.93;89.77;100881.25;5049181;28;20040;-73
2022/08/14 08:01:42;;;;;;;7.32;6.35;;;;;;;23.99;89.20;100883.69;5040335;28;20025;-75
2022/08/14 08:04:09;;;;;;;11.80;7.03;;;;;;;24.06;88.06;100890.59;5056240;28;20021;-73
2022/08/14 08:06:34;;;;;;;6.25;5.65;;;;;;;24.15;87.27;100887.53;5061327;28;20128;-75
2022/08/14 08:09:01;;;;;;;7.85;5.78;;;;;;;24.30;86.21;100885.19;5055206;28;20093;-74
2022/08/14 08:11:31;;;;;;;7.10;5.60;;;;;;;24.41;84.50;100888.31;5047271;28;20036;-74
2022/08/14 08:13:58;;;;;;;8.05;5.63;;;;;;;24.49;84.37;100880.78;5043357;28;20122;-74
2022/08/14 08:16:23;;;;;;;6.60;5.95;;;;;;;24.54;83.48;100876.09;5051934;28;20029;-73
2022/08/14 08:18:49;;;;;;;5.80;4.95;;;;;;;24.69;83.15;100871.94;5053632;28;20038;-73
2022/08/14 08:21:15;;;;;;;10.25;6.75;;;;;;;24.77;82.21;100874.31;5061556;28;20028;-73
2022/08/14 08:23:40;;;;;;;7.68;6.70;;;;;;;24.84;79.74;100859.63;5059295;28;20027;-73
2022/08/14 08:26:06;;;;;;;7.55;6.13;;;;;;;24.92;80.66;100868.25;5049350;28;20116;-74
2022/08/14 08:28:32;;;;;;;7.13;5.80;;;;;;;25.08;79.65;100867.56;5058434;28;20025;-75
2022/08/14 08:31:01;;;;;;;7.68;5.88;;;;;;;25.19;78.77;100862.63;5057993;28;20358;-74
2022/08/14 08:33:29;;;;;;;7.28;6.28;;;;;;;25.28;77.93;100868.53;5050763;28;20075;-74
2022/08/14 08:36:00;;;;;;;7.68;6.25;;;;;;;25.33;78.88;100861.13;5047669;28;20025;-72
2022/08/14 08:38:27;;;;;;;7.65;6.75;;;;;;;25.35;77.71;100870.03;5037812;28;20067;-74
2022/08/14 08:40:58;;;;;;;10.05;6.22;;;;;;;25.46;77.58;100862.34;5057532;28;20029;-75
2022/08/14 08:43:30;;;;;;;8.63;6.13;;;;;;;25.54;76.22;100857.50;5054632;28;20029;-74
2022/08/14 08:46:00;;;;;;;7.07;5.45;;;;;;;25.66;76.11;100861.41;5048831;28;20029;-75
2022/08/14 08:48:28;;;;;;;8.77;5.18;;;;;;;25.77;76.98;100858.22;5037945;28;20030;-73
2022/08/14 08:50:58;;;;;;;11.25;5.32;;;;;;;25.87;77.59;100856.84;5048409;28;20036;-76
2022/08/14 08:53:31;;;;;;;6.00;5.28;;;;;;;26.00;77.45;100856.25;5040999;28;20032;-74
2022/08/14 08:55:56;;;;;;;;;;;;;;;26.09;74.84;100850.47;5048000;28;20017;-75
2022/08/14 08:58:22;;;;;;;7.13;5.30;;;;;;;26.19;75.30;100849.06;5054826;28;19988;-75
2022/08/14 09:00:49;;;;;;;8.32;5.75;;;;;;;26.28;73.17;100849.56;5054953;28;20029;-75
2022/08/14 09:03:20;;;;;;;7.53;5.75;;;;;;;26.36;72.49;100847.38;5058103;28;20065;-77
2022/08/14 09:05:53;;;;;;;12.10;5.57;;;;;;;26.45;73.67;100846.88;5048806;28;20102;-74
2022/08/14 09:08:21;;;;;;;10.00;5.35;;;;;;;26.56;72.73;100843.66;5041874;28;20141;-76
2022/08/14 09:10:46;;;;;;;8.57;5.93;;;;;;;26.70;71.77;100841.16;5040638;28;20472;-76
2022/08/14 09:13:16;;;;;;;6.43;4.55;;;;;;;26.87;70.02;100839.41;5037116;28;20101;-73
2022/08/14 09:15:45;;;;;;;8.18;5.13;;;;;;;27.00;68.96;100839.66;5042960;28;20036;-76
2022/08/14 09:18:12;;;;;;;5.13;4.65;;;;;;;27.11;68.49;100839.09;5052428;28;20060;-74
2022/08/14 09:20:39;;;;;;;9.48;4.63;;;;;;;27.23;67.95;100836.59;5044672;28;20040;-75
2022/08/14 09:23:06;;;;;;;7.28;4.85;;;;;;;27.37;67.74;100837.72;5040291;28;20037;-76
2022/08/14 09:25:32;;;;;;;9.82;4.18;;;;;;;27.51;66.25;100832.44;5042504;28;20064;-76
2022/08/14 09:27:58;;;;;;;5.13;4.45;;;;;;;27.64;63.81;100837.19;5050498;28;20024;-77
2022/08/14 09:30:23;;;;;;;8.48;4.88;;;;;;;27.76;63.73;100831.09;5042813;28;20529;-72
2022/08/14 09:33:02;;;;;;;7.22;4.10;;;;;;;27.90;64.63;100833.91;5047149;28;20591;-76
2022/08/14 09:35:59;;;;;;;5.97;4.32;;;;;;;28.07;63.66;100823.97;5048989;28;20025;-75
2022/08/14 09:38:52;;;;;;;8.52;5.53;;;;;;;28.17;64.97;100825.19;5036605;28;20065;-76
2022/08/14 09:41:30;;;;;;;8.70;4.80;;;;;;;28.27;69.71;100826.41;5050383;28;20036;-76
2022/08/14 09:44:05;;;;;;;5.82;4.57;;;;;;;28.46;72.03;100830.75;5036771;28;20044;-76
2022/08/14 09:46:31;;;;;;;6.43;4.85;;;;;;;28.57;72.31;100821.97;5034623;28;20467;-75
2022/08/14 09:49:01;;;;;;;4.95;4.45;;;;;;;28.70;72.25;100817.59;5038579;28;20037;-74
2022/08/14 09:51:29;;;;;;;6.28;5.63;;;;;;;28.79;68.68;100816.19;5037605;28;20030;-73
2022/08/14 09:54:10;;;;;;;7.45;5.70;;;;;;;28.91;71.02;100812.72;5043578;28;20021;-73
2022/08/14 09:56:49;;;;;;;6.32;5.43;;;;;;;28.94;70.40;100795.41;5049299;28;20231;-74
2022/08/14 09:59:21;;;;;;;8.57;4.88;;;;;;;29.01;67.97;100796.75;5035603;28;20117;-74
2022/08/14 10:01:48;;;;;;;7.38;4.93;;;;;;;29.10;69.15;100804.31;5037406;28;20022;-73
2022/08/14 10:04:31;;;;;;;6.15;5.22;;;;;;;29.19;65.36;100797.47;5046881;28;20536;-74
2022/08/14 10:06:57;;;;;;;7.57;5.03;;;;;;;29.32;66.69;100786.75;5055438;28;20032;-74
2022/08/14 10:09:23;;;;;;;4.68;4.20;;;;;;;29.41;66.53;100790.69;5042368;28;20082;-74
2022/08/14 10:11:57;;;;;;;5.15;4.10;;;;;;;29.59;64.85;100797.66;5043103;28;20075;-73
2022/08/14 10:14:27;;;;;;;5.45;4.47;;;;;;;29.73;65.48;100790.47;5039204;28;20119;-73
2022/08/14 10:16:57;;;;;;;9.00;4.38;;;;;;;29.88;65.02;100791.34;5036669;28;20010;-73
2022/08/14 10:19:25;;;;;;;8.07;4.97;;;;;;;29.97;62.74;100784.47;5036281;28;20098;-74
2022/08/14 10:22:09;;;;;;;11.30;4.88;;;;;;;30.01;63.39;100783.28;5045701;28;20028;-77
2022/08/14 10:24:45;;;;;;;6.57;4.80;;;;;;;30.18;62.34;100783.00;5040048;28;20481;-74
2022/08/14 10:27:17;;;;;;;7.13;4.30;;;;;;;30.26;60.09;100782.50;5045905;28;20028;-74
2022/08/14 10:29:53;;;;;;;4.20;3.88;;;;;;;30.39;62.22;100777.13;5044329;28;20464;-73
2022/08/14 10:32:20;;;;;;;8.05;4.10;;;;;;;30.56;59.55;100779.59;5046454;28;20021;-74
2022/08/14 10:34:46;;;;;;;9.68;4.28;;;;;;;30.71;58.02;100782.19;5039213;28;20104;-74
2022/08/14 10:37:15;;;;;;;7.53;4.85;;;;;;;30.87;56.33;100772.00;5055953;28;20536;-75
2022/08/14 10:39:43;;;;;;;5.05;4.53;;;;;;;30.98;56.47;100767.66;5055236;28;20013;-77
2022/08/14 10:42:13;;;;;;;8.75;3.90;;;;;;;31.09;54.48;100773.22;5039948;28;20036;-75
2022/08/14 10:44:45;;;;;;;3.90;3.50;;;;;;;31.26;54.08;100759.28;5045550;28;20021;-77
2022/08/14 10:47:11;;;;;;;6.40;3.95;;;;;;;31.39;53.07;100766.56;5044848;28;20040;-76
2022/08/14 10:49:48;;;;;;;4.45;3.38;;;;;;;31.55;52.88;100767.19;5045222;28;20369;-76
2022/08/14 10:52:29;;;;;;;8.05;4.80;;;;;;;31.63;50.13;100752.19;5044726;28;20032;-77
2022/08/14 10:55:08;;;;;;;6.03;3.80;;;;;;;31.71;52.03;100755.22;5045839;28;20033;-75
2022/08/14 10:57:46;;;;;;;6.07;3.67;;;;;;;31.90;51.03;100761.00;5041167;28;20029;-75
2022/08/14 11:00:17;;;;;;;10.75;4.03;;;;;;;32.00;52.61;100755.75;5043538;28;20100;-77
2022/08/14 11:02:43;;;;;;;9.07;3.97;;;;;;;32.12;50.76;100759.38;5046276;28;20380;-76
2022/08/14 11:05:13;;;;;;;5.80;3.85;;;;;;;32.17;49.89;100757.22;5045901;28;20049;-75
2022/08/14 11:07:40;;;;;;;5.68;4.28;;;;;;;32.27;49.87;100746.47;5046092;28;20037;-75
2022/08/14 11:10:11;;;;;;;3.58;3.13;;;;;;;32.45;46.63;100749.66;5041506;28;20021;-76
2022/08/14 11:12:48;;;;;;;5.80;3.83;;;;;;;32.70;44.90;100747.75;5047179;28;20064;-75
2022/08/14 11:15:26;;;;;;;3.78;3.38;;;;;;;32.88;43.67;100746.31;5042369;28;20467;-75
2022/08/14 11:17:52;;;;;;;5.50;3.15;;;;;;;32.90;40.99;100738.03;5043131;28;20126;-75
2022/08/14 11:20:21;;;;;;;4.30;3.53;;;;;;;32.93;41.28;100737.75;5047983;28;20103;-76
2022/08/14 11:22:51;;;;;;;4.00;3.60;;;;;;;32.97;41.89;100744.72;5034397;28;20385;-75
2022/08/14 11:25:19;;;;;;;4.85;3.08;;;;;;;33.15;42.29;100742.34;5042995;28;20021;-75
2022/08/14 11:27:45;;;;;;;6.03;3.85;;;;;;;33.44;42.44;100741.91;5047687;28;20041;-75
2022/08/14 11:30:17;;;;;;;4.82;3.60;;;;;;;33.61;43.45;100757.72;5034838;28;20029;-75
2022/08/14 11:32:44;;;;;;;3.85;3.22;;;;;;;33.91;37.82;100753.50;5045650;28;20124;-75
2022/08/14 11:35:15;;;;;;;3.47;3.17;;;;;;;34.20;38.13;100755.59;5043204;28;20029;-78
2022/08/14 11:37:54;;;;;;;4.78;2.78;;;;;;;34.42;36.99;100742.88;5054646;28;20025;-78
2022/08/14 11:40:22;;;;;;;5.03;3.22;;;;;;;34.55;38.92;100746.28;5048284;28;20100;-79